sensor_id;sensor_type;location;lat;lon;timestamp;P1;durP1;ratioP1;P2;durP2;ratioP2
71042;SDS011;58696;52.134;5.500;2023-05-10T00:01:45;12.70;;;9.30;;
71042;SDS011;58696;52.134;5.500;2023-05-10T00:04:14;12.70;;;10.13;;
71042;SDS011;58696;52.134;5.500;2023-05-10T00:06:40;17.77;;;10.52;;
71042;SDS011;58696;52.134;5.500;2023-05-10T00:09:09;14.32;;;10.23;;
71042;SDS011;58696;52.134;5.500;2023-05-10T00:11:36;12.10;;;10.10;;
71042;SDS011;58696;52.134;5.500;2023-05-10T00:14:05;16.05;;;11.02;;
71042;SDS011;58696;52.134;5.500;2023-05-10T00:16:36;17.42;;;9.85;;
71042;SDS011;58696;52.134;5.500;2023-05-10T00:19:03;12.45;;;10.00;;
71042;SDS011;58696;52.134;5.500;2023-05-10T00:21:29;13.70;;;10.43;;
71042;SDS011;58696;52.134;5.500;2023-05-10T00:23:58;13.30;;;10.07;;
71042;SDS011;58696;52.134;5.500;2023-05-10T00:26:32;12.02;;;9.63;;
71042;SDS011;58696;52.134;5.500;2023-05-10T00:28:59;16.38;;;9.55;;
71042;SDS011;58696;52.134;5.500;2023-05-10T00:31:30;13.15;;;10.40;;
71042;SDS011;58696;52.134;5.500;2023-05-10T00:33:57;13.68;;;10.27;;
71042;SDS011;58696;52.134;5.500;2023-05-10T00:36:28;13.50;;;10.90;;
71042;SDS011;58696;52.134;5.500;2023-05-10T00:38:54;13.45;;;10.68;;
71042;SDS011;58696;52.134;5.500;2023-05-10T00:41:23;18.17;;;12.02;;
71042;SDS011;58696;52.134;5.500;2023-05-10T00:43:52;19.75;;;12.50;;
71042;SDS011;58696;52.134;5.500;2023-05-10T00:46:21;20.42;;;12.55;;
71042;SDS011;58696;52.134;5.500;2023-05-10T00:48:49;23.52;;;13.65;;
71042;SDS011;58696;52.134;5.500;2023-05-10T00:51:16;20.55;;;13.50;;
71042;SDS011;58696;52.134;5.500;2023-05-10T00:53:43;24.33;;;15.52;;
71042;SDS011;58696;52.134;5.500;2023-05-10T00:56:12;27.27;;;17.00;;
71042;SDS011;58696;52.134;5.500;2023-05-10T00:58:39;34.40;;;20.00;;
71042;SDS011;58696;52.134;5.500;2023-05-10T01:01:08;30.13;;;19.65;;
71042;SDS011;58696;52.134;5.500;2023-05-10T01:03:38;34.70;;;20.42;;
71042;SDS011;58696;52.134;5.500;2023-05-10T01:06:06;40.17;;;21.17;;
71042;SDS011;58696;52.134;5.500;2023-05-10T01:08:36;41.85;;;23.15;;
71042;SDS011;58696;52.134;5.500;2023-05-10T01:11:03;39.70;;;22.90;;
71042;SDS011;58696;52.134;5.500;2023-05-10T01:13:36;48.65;;;24.38;;
71042;SDS011;58696;52.134;5.500;2023-05-10T01:16:04;43.65;;;24.73;;
71042;SDS011;58696;52.134;5.500;2023-05-10T01:18:36;40.15;;;24.10;;
71042;SDS011;58696;52.134;5.500;2023-05-10T01:43:26;37.90;;;23.00;;
71042;SDS011;58696;52.134;5.500;2023-05-10T01:48:38;40.17;;;24.20;;
71042;SDS011;58696;52.134;5.500;2023-05-10T01:51:16;41.70;;;24.40;;
71042;SDS011;58696;52.134;5.500;2023-05-10T01:53:47;43.10;;;22.70;;
71042;SDS011;58696;52.134;5.500;2023-05-10T01:56:16;41.03;;;22.95;;
71042;SDS011;58696;52.134;5.500;2023-05-10T01:58:48;41.80;;;23.58;;
71042;SDS011;58696;52.134;5.500;2023-05-10T02:01:20;45.67;;;23.95;;
71042;SDS011;58696;52.134;5.500;2023-05-10T02:03:50;44.83;;;24.55;;
71042;SDS011;58696;52.134;5.500;2023-05-10T02:06:18;46.42;;;24.80;;
71042;SDS011;58696;52.134;5.500;2023-05-10T02:08:50;44.83;;;23.45;;
71042;SDS011;58696;52.134;5.500;2023-05-10T02:11:24;44.75;;;23.05;;
71042;SDS011;58696;52.134;5.500;2023-05-10T02:13:51;45.42;;;24.17;;
71042;SDS011;58696;52.134;5.500;2023-05-10T02:16:21;40.33;;;22.65;;
71042;SDS011;58696;52.134;5.500;2023-05-10T02:18:52;38.88;;;22.40;;
71042;SDS011;58696;52.134;5.500;2023-05-10T02:21:20;42.15;;;23.35;;
71042;SDS011;58696;52.134;5.500;2023-05-10T02:23:51;45.10;;;23.10;;
71042;SDS011;58696;52.134;5.500;2023-05-10T02:26:21;42.88;;;22.55;;
71042;SDS011;58696;52.134;5.500;2023-05-10T02:28:52;41.35;;;22.67;;
71042;SDS011;58696;52.134;5.500;2023-05-10T02:31:23;40.28;;;23.52;;
71042;SDS011;58696;52.134;5.500;2023-05-10T02:33:54;43.63;;;23.17;;
71042;SDS011;58696;52.134;5.500;2023-05-10T02:36:23;38.83;;;22.52;;
71042;SDS011;58696;52.134;5.500;2023-05-10T02:38:50;42.50;;;22.52;;
71042;SDS011;58696;52.134;5.500;2023-05-10T02:43:47;36.85;;;21.58;;
71042;SDS011;58696;52.134;5.500;2023-05-10T02:46:21;43.92;;;22.70;;
71042;SDS011;58696;52.134;5.500;2023-05-10T02:48:47;46.90;;;24.90;;
71042;SDS011;58696;52.134;5.500;2023-05-10T02:51:14;48.75;;;24.85;;
71042;SDS011;58696;52.134;5.500;2023-05-10T02:53:44;47.10;;;25.13;;
71042;SDS011;58696;52.134;5.500;2023-05-10T02:56:20;44.42;;;23.25;;
71042;SDS011;58696;52.134;5.500;2023-05-10T02:59:00;43.80;;;24.50;;
71042;SDS011;58696;52.134;5.500;2023-05-10T03:01:27;46.47;;;24.52;;
71042;SDS011;58696;52.134;5.500;2023-05-10T03:03:56;49.25;;;23.90;;
71042;SDS011;58696;52.134;5.500;2023-05-10T03:06:25;45.03;;;24.13;;
71042;SDS011;58696;52.134;5.500;2023-05-10T03:08:51;49.95;;;25.88;;
71042;SDS011;58696;52.134;5.500;2023-05-10T03:11:28;46.20;;;24.60;;
71042;SDS011;58696;52.134;5.500;2023-05-10T03:14:10;40.75;;;23.92;;
71042;SDS011;58696;52.134;5.500;2023-05-10T03:16:51;53.22;;;27.42;;
71042;SDS011;58696;52.134;5.500;2023-05-10T03:19:45;54.72;;;27.98;;
71042;SDS011;58696;52.134;5.500;2023-05-10T03:22:20;55.28;;;27.77;;
71042;SDS011;58696;52.134;5.500;2023-05-10T03:24:51;56.70;;;27.35;;
71042;SDS011;58696;52.134;5.500;2023-05-10T03:27:23;61.40;;;29.55;;
71042;SDS011;58696;52.134;5.500;2023-05-10T03:29:54;61.30;;;29.83;;
71042;SDS011;58696;52.134;5.500;2023-05-10T03:32:26;61.95;;;30.90;;
71042;SDS011;58696;52.134;5.500;2023-05-10T03:34:55;56.50;;;28.33;;
71042;SDS011;58696;52.134;5.500;2023-05-10T03:37:22;69.97;;;31.02;;
71042;SDS011;58696;52.134;5.500;2023-05-10T03:39:48;66.78;;;29.17;;
71042;SDS011;58696;52.134;5.500;2023-05-10T03:42:17;59.42;;;28.15;;
71042;SDS011;58696;52.134;5.500;2023-05-10T03:44:44;73.63;;;30.45;;
71042;SDS011;58696;52.134;5.500;2023-05-10T03:47:15;59.92;;;28.35;;
71042;SDS011;58696;52.134;5.500;2023-05-10T03:49:41;70.65;;;29.75;;
71042;SDS011;58696;52.134;5.500;2023-05-10T03:52:10;65.00;;;28.77;;
71042;SDS011;58696;52.134;5.500;2023-05-10T03:54:37;63.83;;;28.17;;
71042;SDS011;58696;52.134;5.500;2023-05-10T03:57:03;66.00;;;29.23;;
71042;SDS011;58696;52.134;5.500;2023-05-10T03:59:30;73.72;;;29.92;;
71042;SDS011;58696;52.134;5.500;2023-05-10T04:01:59;74.10;;;29.27;;
71042;SDS011;58696;52.134;5.500;2023-05-10T04:04:29;72.40;;;29.75;;
71042;SDS011;58696;52.134;5.500;2023-05-10T04:06:55;69.35;;;29.98;;
71042;SDS011;58696;52.134;5.500;2023-05-10T04:09:22;68.68;;;30.25;;
71042;SDS011;58696;52.134;5.500;2023-05-10T04:11:48;73.05;;;30.80;;
71042;SDS011;58696;52.134;5.500;2023-05-10T04:14:17;65.63;;;29.77;;
71042;SDS011;58696;52.134;5.500;2023-05-10T04:16:44;67.30;;;30.52;;
71042;SDS011;58696;52.134;5.500;2023-05-10T04:19:12;64.88;;;28.13;;
71042;SDS011;58696;52.134;5.500;2023-05-10T04:21:41;62.63;;;28.83;;
71042;SDS011;58696;52.134;5.500;2023-05-10T04:24:10;61.28;;;28.20;;
71042;SDS011;58696;52.134;5.500;2023-05-10T04:29:05;56.58;;;25.02;;
71042;SDS011;58696;52.134;5.500;2023-05-10T04:31:31;65.20;;;27.05;;
71042;SDS011;58696;52.134;5.500;2023-05-10T04:34:02;64.85;;;27.25;;
71042;SDS011;58696;52.134;5.500;2023-05-10T04:36:31;61.90;;;26.67;;
71042;SDS011;58696;52.134;5.500;2023-05-10T04:39:04;65.95;;;26.88;;
71042;SDS011;58696;52.134;5.500;2023-05-10T04:41:31;64.10;;;26.75;;
71042;SDS011;58696;52.134;5.500;2023-05-10T04:43:59;67.47;;;26.55;;
71042;SDS011;58696;52.134;5.500;2023-05-10T04:46:26;71.00;;;26.17;;
71042;SDS011;58696;52.134;5.500;2023-05-10T04:48:54;66.15;;;26.17;;
71042;SDS011;58696;52.134;5.500;2023-05-10T04:51:21;56.88;;;27.17;;
71042;SDS011;58696;52.134;5.500;2023-05-10T04:53:50;62.88;;;26.88;;
71042;SDS011;58696;52.134;5.500;2023-05-10T04:56:31;59.80;;;25.35;;
71042;SDS011;58696;52.134;5.500;2023-05-10T04:58:57;65.00;;;27.00;;
71042;SDS011;58696;52.134;5.500;2023-05-10T05:01:28;62.78;;;25.92;;
71042;SDS011;58696;52.134;5.500;2023-05-10T05:03:58;58.28;;;25.92;;
71042;SDS011;58696;52.134;5.500;2023-05-10T05:06:25;63.85;;;27.60;;
71042;SDS011;58696;52.134;5.500;2023-05-10T05:08:53;66.78;;;26.55;;
71042;SDS011;58696;52.134;5.500;2023-05-10T05:11:24;65.65;;;27.45;;
71042;SDS011;58696;52.134;5.500;2023-05-10T05:13:53;69.47;;;27.35;;
71042;SDS011;58696;52.134;5.500;2023-05-10T05:16:19;65.32;;;27.48;;
71042;SDS011;58696;52.134;5.500;2023-05-10T05:18:46;74.35;;;27.05;;
71042;SDS011;58696;52.134;5.500;2023-05-10T05:21:18;61.78;;;27.88;;
71042;SDS011;58696;52.134;5.500;2023-05-10T05:23:48;68.20;;;28.38;;
71042;SDS011;58696;52.134;5.500;2023-05-10T05:26:14;67.82;;;27.58;;
71042;SDS011;58696;52.134;5.500;2023-05-10T05:28:43;69.22;;;28.30;;
71042;SDS011;58696;52.134;5.500;2023-05-10T05:31:10;79.00;;;28.45;;
71042;SDS011;58696;52.134;5.500;2023-05-10T05:33:40;66.18;;;27.42;;
71042;SDS011;58696;52.134;5.500;2023-05-10T05:36:06;68.00;;;28.30;;
71042;SDS011;58696;52.134;5.500;2023-05-10T05:38:35;68.97;;;28.17;;
71042;SDS011;58696;52.134;5.500;2023-05-10T05:41:02;66.07;;;29.13;;
71042;SDS011;58696;52.134;5.500;2023-05-10T05:43:29;75.07;;;29.13;;
71042;SDS011;58696;52.134;5.500;2023-05-10T05:45:57;63.28;;;28.70;;
71042;SDS011;58696;52.134;5.500;2023-05-10T05:48:29;78.80;;;32.50;;
71042;SDS011;58696;52.134;5.500;2023-05-10T05:50:56;72.88;;;30.15;;
71042;SDS011;58696;52.134;5.500;2023-05-10T05:53:23;67.43;;;29.52;;
71042;SDS011;58696;52.134;5.500;2023-05-10T05:58:22;70.18;;;32.30;;
71042;SDS011;58696;52.134;5.500;2023-05-10T06:00:49;65.70;;;30.67;;
71042;SDS011;58696;52.134;5.500;2023-05-10T06:03:17;66.93;;;29.63;;
71042;SDS011;58696;52.134;5.500;2023-05-10T06:05:46;63.40;;;29.13;;
71042;SDS011;58696;52.134;5.500;2023-05-10T06:08:13;59.55;;;27.92;;
71042;SDS011;58696;52.134;5.500;2023-05-10T06:10:39;57.05;;;28.85;;
71042;SDS011;58696;52.134;5.500;2023-05-10T06:13:06;65.90;;;27.55;;
71042;SDS011;58696;52.134;5.500;2023-05-10T06:15:35;55.42;;;27.08;;
71042;SDS011;58696;52.134;5.500;2023-05-10T06:18:01;59.72;;;27.58;;
71042;SDS011;58696;52.134;5.500;2023-05-10T06:20:28;57.90;;;27.77;;
71042;SDS011;58696;52.134;5.500;2023-05-10T06:22:56;50.88;;;24.65;;
71042;SDS011;58696;52.134;5.500;2023-05-10T06:25:25;51.47;;;24.42;;
71042;SDS011;58696;52.134;5.500;2023-05-10T06:27:52;46.40;;;24.08;;
71042;SDS011;58696;52.134;5.500;2023-05-10T06:30:26;40.75;;;22.08;;
71042;SDS011;58696;52.134;5.500;2023-05-10T06:32:55;49.58;;;23.73;;
71042;SDS011;58696;52.134;5.500;2023-05-10T06:35:22;54.03;;;25.87;;
71042;SDS011;58696;52.134;5.500;2023-05-10T06:37:49;51.80;;;25.50;;
71042;SDS011;58696;52.134;5.500;2023-05-10T06:40:18;50.25;;;24.15;;
71042;SDS011;58696;52.134;5.500;2023-05-10T06:42:45;57.35;;;24.58;;
71042;SDS011;58696;52.134;5.500;2023-05-10T06:45:13;53.45;;;24.77;;
71042;SDS011;58696;52.134;5.500;2023-05-10T06:47:41;47.78;;;23.50;;
71042;SDS011;58696;52.134;5.500;2023-05-10T06:50:13;48.78;;;24.90;;
71042;SDS011;58696;52.134;5.500;2023-05-10T06:52:39;51.33;;;23.40;;
71042;SDS011;58696;52.134;5.500;2023-05-10T06:55:11;43.17;;;21.92;;
71042;SDS011;58696;52.134;5.500;2023-05-10T06:57:38;36.25;;;20.50;;
71042;SDS011;58696;52.134;5.500;2023-05-10T07:00:07;35.92;;;19.77;;
71042;SDS011;58696;52.134;5.500;2023-05-10T07:02:35;29.90;;;17.92;;
71042;SDS011;58696;52.134;5.500;2023-05-10T07:05:02;26.42;;;15.70;;
71042;SDS011;58696;52.134;5.500;2023-05-10T07:07:29;22.88;;;13.73;;
71042;SDS011;58696;52.134;5.500;2023-05-10T07:09:58;27.55;;;14.18;;
71042;SDS011;58696;52.134;5.500;2023-05-10T07:12:27;23.42;;;13.30;;
71042;SDS011;58696;52.134;5.500;2023-05-10T07:14:53;19.98;;;12.65;;
71042;SDS011;58696;52.134;5.500;2023-05-10T07:17:20;25.50;;;12.50;;
71042;SDS011;58696;52.134;5.500;2023-05-10T07:19:46;23.42;;;12.40;;
71042;SDS011;58696;52.134;5.500;2023-05-10T07:22:13;18.48;;;11.55;;
71042;SDS011;58696;52.134;5.500;2023-05-10T07:24:45;19.15;;;11.75;;
71042;SDS011;58696;52.134;5.500;2023-05-10T07:27:12;20.25;;;11.10;;
71042;SDS011;58696;52.134;5.500;2023-05-10T07:29:39;19.27;;;9.52;;
71042;SDS011;58696;52.134;5.500;2023-05-10T07:32:08;17.15;;;10.35;;
71042;SDS011;58696;52.134;5.500;2023-05-10T07:34:35;20.25;;;9.02;;
71042;SDS011;58696;52.134;5.500;2023-05-10T07:37:01;12.50;;;8.32;;
71042;SDS011;58696;52.134;5.500;2023-05-10T07:39:28;15.85;;;9.35;;
71042;SDS011;58696;52.134;5.500;2023-05-10T07:42:02;12.00;;;8.73;;
71042;SDS011;58696;52.134;5.500;2023-05-10T07:44:31;16.52;;;10.23;;
71042;SDS011;58696;52.134;5.500;2023-05-10T07:46:58;14.65;;;8.90;;
71042;SDS011;58696;52.134;5.500;2023-05-10T07:49:26;15.07;;;9.30;;
71042;SDS011;58696;52.134;5.500;2023-05-10T07:51:53;14.23;;;9.40;;
71042;SDS011;58696;52.134;5.500;2023-05-10T07:54:19;13.50;;;8.40;;
71042;SDS011;58696;52.134;5.500;2023-05-10T07:56:51;15.65;;;8.82;;
71042;SDS011;58696;52.134;5.500;2023-05-10T07:59:17;15.85;;;9.50;;
71042;SDS011;58696;52.134;5.500;2023-05-10T08:01:44;13.07;;;8.55;;
71042;SDS011;58696;52.134;5.500;2023-05-10T08:04:11;13.75;;;9.38;;
71042;SDS011;58696;52.134;5.500;2023-05-10T08:06:38;17.05;;;10.13;;
71042;SDS011;58696;52.134;5.500;2023-05-10T08:09:05;20.23;;;10.35;;
71042;SDS011;58696;52.134;5.500;2023-05-10T08:11:34;15.77;;;9.48;;
71042;SDS011;58696;52.134;5.500;2023-05-10T08:14:06;21.38;;;11.40;;
71042;SDS011;58696;52.134;5.500;2023-05-10T08:16:32;16.67;;;10.82;;
71042;SDS011;58696;52.134;5.500;2023-05-10T08:19:01;13.70;;;9.65;;
71042;SDS011;58696;52.134;5.500;2023-05-10T08:21:28;15.50;;;9.48;;
71042;SDS011;58696;52.134;5.500;2023-05-10T08:23:55;18.08;;;9.90;;
71042;SDS011;58696;52.134;5.500;2023-05-10T08:26:21;13.70;;;9.20;;
71042;SDS011;58696;52.134;5.500;2023-05-10T08:28:51;15.70;;;9.35;;
71042;SDS011;58696;52.134;5.500;2023-05-10T08:31:19;13.65;;;9.15;;
71042;SDS011;58696;52.134;5.500;2023-05-10T08:33:48;10.27;;;7.72;;
71042;SDS011;58696;52.134;5.500;2023-05-10T08:36:17;13.38;;;8.05;;
71042;SDS011;58696;52.134;5.500;2023-05-10T08:38:50;12.00;;;8.32;;
71042;SDS011;58696;52.134;5.500;2023-05-10T08:41:19;14.18;;;8.27;;
71042;SDS011;58696;52.134;5.500;2023-05-10T08:43:51;14.68;;;9.52;;
71042;SDS011;58696;52.134;5.500;2023-05-10T08:46:18;18.58;;;9.38;;
71042;SDS011;58696;52.134;5.500;2023-05-10T08:48:50;17.63;;;9.55;;
71042;SDS011;58696;52.134;5.500;2023-05-10T08:51:24;12.15;;;9.52;;
71042;SDS011;58696;52.134;5.500;2023-05-10T08:53:53;17.63;;;9.18;;
71042;SDS011;58696;52.134;5.500;2023-05-10T08:56:22;13.82;;;9.60;;
71042;SDS011;58696;52.134;5.500;2023-05-10T08:58:50;14.27;;;9.82;;
71042;SDS011;58696;52.134;5.500;2023-05-10T09:01:19;16.45;;;9.77;;
71042;SDS011;58696;52.134;5.500;2023-05-10T09:03:47;14.95;;;9.25;;
71042;SDS011;58696;52.134;5.500;2023-05-10T09:06:14;14.20;;;9.47;;
71042;SDS011;58696;52.134;5.500;2023-05-10T09:08:43;19.05;;;10.48;;
71042;SDS011;58696;52.134;5.500;2023-05-10T09:11:14;19.30;;;10.05;;
71042;SDS011;58696;52.134;5.500;2023-05-10T09:13:43;16.30;;;9.82;;
71042;SDS011;58696;52.134;5.500;2023-05-10T09:16:10;17.05;;;8.80;;
71042;SDS011;58696;52.134;5.500;2023-05-10T09:18:47;17.85;;;9.27;;
71042;SDS011;58696;52.134;5.500;2023-05-10T09:21:15;11.70;;;9.10;;
71042;SDS011;58696;52.134;5.500;2023-05-10T09:23:44;13.95;;;8.50;;
71042;SDS011;58696;52.134;5.500;2023-05-10T09:26:13;13.25;;;8.80;;
71042;SDS011;58696;52.134;5.500;2023-05-10T09:28:56;8.02;;;7.18;;
71042;SDS011;58696;52.134;5.500;2023-05-10T09:31:24;9.85;;;7.85;;
71042;SDS011;58696;52.134;5.500;2023-05-10T09:34:08;9.98;;;7.20;;
71042;SDS011;58696;52.134;5.500;2023-05-10T09:36:49;10.88;;;6.95;;
71042;SDS011;58696;52.134;5.500;2023-05-10T09:39:17;9.35;;;6.85;;
71042;SDS011;58696;52.134;5.500;2023-05-10T09:41:44;9.82;;;7.22;;
71042;SDS011;58696;52.134;5.500;2023-05-10T09:44:16;10.50;;;7.07;;
71042;SDS011;58696;52.134;5.500;2023-05-10T09:46:48;11.32;;;6.63;;
71042;SDS011;58696;52.134;5.500;2023-05-10T09:49:19;8.70;;;5.97;;
71042;SDS011;58696;52.134;5.500;2023-05-10T09:51:47;10.05;;;5.32;;
71042;SDS011;58696;52.134;5.500;2023-05-10T09:54:15;9.10;;;5.82;;
71042;SDS011;58696;52.134;5.500;2023-05-10T09:56:47;7.55;;;5.40;;
71042;SDS011;58696;52.134;5.500;2023-05-10T09:59:16;7.10;;;4.53;;
71042;SDS011;58696;52.134;5.500;2023-05-10T10:01:43;9.50;;;5.10;;
71042;SDS011;58696;52.134;5.500;2023-05-10T10:04:16;4.63;;;4.07;;
71042;SDS011;58696;52.134;5.500;2023-05-10T10:06:43;8.88;;;4.70;;
71042;SDS011;58696;52.134;5.500;2023-05-10T10:09:10;6.68;;;4.38;;
71042;SDS011;58696;52.134;5.500;2023-05-10T10:11:39;5.50;;;3.97;;
71042;SDS011;58696;52.134;5.500;2023-05-10T10:14:07;6.00;;;3.50;;
71042;SDS011;58696;52.134;5.500;2023-05-10T10:16:37;5.28;;;3.42;;
71042;SDS011;58696;52.134;5.500;2023-05-10T10:19:24;4.80;;;3.35;;
71042;SDS011;58696;52.134;5.500;2023-05-10T10:21:55;3.83;;;3.33;;
71042;SDS011;58696;52.134;5.500;2023-05-10T10:24:21;9.27;;;3.50;;
71042;SDS011;58696;52.134;5.500;2023-05-10T10:26:48;4.13;;;3.17;;
71042;SDS011;58696;52.134;5.500;2023-05-10T10:29:26;4.45;;;3.38;;
71042;SDS011;58696;52.134;5.500;2023-05-10T10:34:53;6.28;;;3.80;;
71042;SDS011;58696;52.134;5.500;2023-05-10T10:37:21;7.10;;;3.92;;
71042;SDS011;58696;52.134;5.500;2023-05-10T10:39:48;5.55;;;4.10;;
71042;SDS011;58696;52.134;5.500;2023-05-10T10:42:33;6.88;;;4.43;;
71042;SDS011;58696;52.134;5.500;2023-05-10T10:45:12;7.17;;;4.90;;
71042;SDS011;58696;52.134;5.500;2023-05-10T10:47:39;10.05;;;4.88;;
71042;SDS011;58696;52.134;5.500;2023-05-10T10:50:06;7.38;;;4.85;;
71042;SDS011;58696;52.134;5.500;2023-05-10T10:55:16;6.60;;;4.75;;
71042;SDS011;58696;52.134;5.500;2023-05-10T11:00:30;9.35;;;5.32;;
71042;SDS011;58696;52.134;5.500;2023-05-10T11:03:04;8.60;;;5.55;;
71042;SDS011;58696;52.134;5.500;2023-05-10T11:05:45;6.93;;;5.03;;
71042;SDS011;58696;52.134;5.500;2023-05-10T11:08:27;7.03;;;5.38;;
71042;SDS011;58696;52.134;5.500;2023-05-10T11:16:24;8.75;;;6.43;;
71042;SDS011;58696;52.134;5.500;2023-05-10T11:21:30;8.52;;;6.18;;
71042;SDS011;58696;52.134;5.500;2023-05-10T11:24:00;7.30;;;5.38;;
71042;SDS011;58696;52.134;5.500;2023-05-10T11:26:33;9.18;;;5.15;;
71042;SDS011;58696;52.134;5.500;2023-05-10T11:29:01;6.30;;;4.85;;
71042;SDS011;58696;52.134;5.500;2023-05-10T11:31:31;4.30;;;3.90;;
71042;SDS011;58696;52.134;5.500;2023-05-10T11:34:00;5.30;;;4.05;;
71042;SDS011;58696;52.134;5.500;2023-05-10T11:36:34;6.22;;;4.10;;
71042;SDS011;58696;52.134;5.500;2023-05-10T11:39:04;6.57;;;4.03;;
71042;SDS011;58696;52.134;5.500;2023-05-10T11:41:31;5.35;;;4.05;;
71042;SDS011;58696;52.134;5.500;2023-05-10T11:44:01;6.00;;;4.35;;
71042;SDS011;58696;52.134;5.500;2023-05-10T11:46:30;7.07;;;5.13;;
71042;SDS011;58696;52.134;5.500;2023-05-10T11:48:58;8.07;;;4.85;;
71042;SDS011;58696;52.134;5.500;2023-05-10T11:51:33;7.10;;;5.30;;
71042;SDS011;58696;52.134;5.500;2023-05-10T11:54:00;6.32;;;4.88;;
71042;SDS011;58696;52.134;5.500;2023-05-10T11:56:27;5.72;;;4.80;;
71042;SDS011;58696;52.134;5.500;2023-05-10T11:58:54;6.22;;;4.88;;
71042;SDS011;58696;52.134;5.500;2023-05-10T12:01:24;8.93;;;3.97;;
71042;SDS011;58696;52.134;5.500;2023-05-10T12:03:55;7.05;;;4.57;;
71042;SDS011;58696;52.134;5.500;2023-05-10T12:06:30;8.98;;;4.45;;
71042;SDS011;58696;52.134;5.500;2023-05-10T12:09:02;5.43;;;4.25;;
71042;SDS011;58696;52.134;5.500;2023-05-10T12:11:32;7.22;;;4.40;;
71042;SDS011;58696;52.134;5.500;2023-05-10T12:13:58;5.88;;;4.50;;
71042;SDS011;58696;52.134;5.500;2023-05-10T12:16:26;5.18;;;4.05;;
71042;SDS011;58696;52.134;5.500;2023-05-10T12:18:58;5.10;;;4.25;;
71042;SDS011;58696;52.134;5.500;2023-05-10T12:21:26;6.65;;;4.35;;
71042;SDS011;58696;52.134;5.500;2023-05-10T12:24:03;5.28;;;3.67;;
71042;SDS011;58696;52.134;5.500;2023-05-10T12:26:32;7.13;;;3.70;;
71042;SDS011;58696;52.134;5.500;2023-05-10T12:29:19;5.40;;;3.80;;
71042;SDS011;58696;52.134;5.500;2023-05-10T12:34:34;5.85;;;2.83;;
71042;SDS011;58696;52.134;5.500;2023-05-10T12:37:02;7.22;;;3.00;;
71042;SDS011;58696;52.134;5.500;2023-05-10T12:39:39;7.43;;;3.17;;
71042;SDS011;58696;52.134;5.500;2023-05-10T12:42:09;3.10;;;2.80;;
71042;SDS011;58696;52.134;5.500;2023-05-10T12:44:36;4.32;;;2.63;;
71042;SDS011;58696;52.134;5.500;2023-05-10T12:47:03;2.60;;;2.30;;
71042;SDS011;58696;52.134;5.500;2023-05-10T12:49:32;4.18;;;2.97;;
71042;SDS011;58696;52.134;5.500;2023-05-10T12:51:58;2.47;;;1.83;;
71042;SDS011;58696;52.134;5.500;2023-05-10T12:54:27;4.13;;;1.85;;
71042;SDS011;58696;52.134;5.500;2023-05-10T12:56:54;4.15;;;2.20;;
71042;SDS011;58696;52.134;5.500;2023-05-10T12:59:21;4.85;;;2.65;;
71042;SDS011;58696;52.134;5.500;2023-05-10T13:01:47;3.38;;;1.90;;
71042;SDS011;58696;52.134;5.500;2023-05-10T13:04:14;3.80;;;2.05;;
71042;SDS011;58696;52.134;5.500;2023-05-10T13:06:43;3.95;;;3.03;;
71042;SDS011;58696;52.134;5.500;2023-05-10T13:09:09;5.03;;;2.15;;
71042;SDS011;58696;52.134;5.500;2023-05-10T13:11:36;3.40;;;2.20;;
71042;SDS011;58696;52.134;5.500;2023-05-10T13:14:07;2.40;;;2.15;;
71042;SDS011;58696;52.134;5.500;2023-05-10T13:16:36;3.30;;;1.75;;
71042;SDS011;58696;52.134;5.500;2023-05-10T13:19:05;3.20;;;2.50;;
71042;SDS011;58696;52.134;5.500;2023-05-10T13:21:32;4.07;;;2.75;;
71042;SDS011;58696;52.134;5.500;2023-05-10T13:23:58;4.53;;;2.40;;
71042;SDS011;58696;52.134;5.500;2023-05-10T13:28:52;4.05;;;2.40;;
71042;SDS011;58696;52.134;5.500;2023-05-10T13:31:21;3.20;;;2.00;;
71042;SDS011;58696;52.134;5.500;2023-05-10T13:33:48;5.82;;;3.20;;
71042;SDS011;58696;52.134;5.500;2023-05-10T13:36:16;6.07;;;3.92;;
71042;SDS011;58696;52.134;5.500;2023-05-10T13:38:43;7.25;;;4.75;;
71042;SDS011;58696;52.134;5.500;2023-05-10T13:41:10;6.20;;;4.28;;
71042;SDS011;58696;52.134;5.500;2023-05-10T13:43:36;8.60;;;5.20;;
71042;SDS011;58696;52.134;5.500;2023-05-10T13:46:03;6.38;;;4.57;;
71042;SDS011;58696;52.134;5.500;2023-05-10T13:48:29;6.43;;;4.78;;
71042;SDS011;58696;52.134;5.500;2023-05-10T13:50:58;6.93;;;4.50;;
71042;SDS011;58696;52.134;5.500;2023-05-10T13:53:25;7.20;;;4.35;;
71042;SDS011;58696;52.134;5.500;2023-05-10T13:55:54;5.70;;;3.30;;
71042;SDS011;58696;52.134;5.500;2023-05-10T13:58:20;8.02;;;3.40;;
71042;SDS011;58696;52.134;5.500;2023-05-10T14:00:49;6.15;;;3.67;;
71042;SDS011;58696;52.134;5.500;2023-05-10T14:03:18;8.27;;;3.85;;
71042;SDS011;58696;52.134;5.500;2023-05-10T14:05:47;5.80;;;3.78;;
71042;SDS011;58696;52.134;5.500;2023-05-10T14:08:16;8.73;;;4.22;;
71042;SDS011;58696;52.134;5.500;2023-05-10T14:10:47;5.65;;;3.63;;
71042;SDS011;58696;52.134;5.500;2023-05-10T14:13:18;8.07;;;3.97;;
71042;SDS011;58696;52.134;5.500;2023-05-10T14:15:49;7.20;;;3.90;;
71042;SDS011;58696;52.134;5.500;2023-05-10T14:18:16;6.83;;;3.93;;
71042;SDS011;58696;52.134;5.500;2023-05-10T14:20:48;4.57;;;4.05;;
71042;SDS011;58696;52.134;5.500;2023-05-10T14:23:15;8.23;;;4.20;;
71042;SDS011;58696;52.134;5.500;2023-05-10T14:25:45;8.18;;;4.13;;
71042;SDS011;58696;52.134;5.500;2023-05-10T14:28:12;5.15;;;4.15;;
71042;SDS011;58696;52.134;5.500;2023-05-10T14:30:41;6.10;;;3.53;;
71042;SDS011;58696;52.134;5.500;2023-05-10T14:33:10;5.55;;;3.90;;
71042;SDS011;58696;52.134;5.500;2023-05-10T14:35:41;5.47;;;4.03;;
71042;SDS011;58696;52.134;5.500;2023-05-10T14:38:10;6.43;;;4.32;;
71042;SDS011;58696;52.134;5.500;2023-05-10T14:40:37;6.13;;;4.13;;
71042;SDS011;58696;52.134;5.500;2023-05-10T14:43:03;6.05;;;4.15;;
71042;SDS011;58696;52.134;5.500;2023-05-10T14:45:35;6.90;;;4.13;;
71042;SDS011;58696;52.134;5.500;2023-05-10T14:48:04;6.97;;;4.80;;
71042;SDS011;58696;52.134;5.500;2023-05-10T14:50:33;6.35;;;4.82;;
71042;SDS011;58696;52.134;5.500;2023-05-10T14:53:05;6.97;;;4.70;;
71042;SDS011;58696;52.134;5.500;2023-05-10T14:55:32;10.77;;;5.18;;
71042;SDS011;58696;52.134;5.500;2023-05-10T14:57:58;8.10;;;4.85;;
71042;SDS011;58696;52.134;5.500;2023-05-10T15:00:28;7.32;;;5.45;;
71042;SDS011;58696;52.134;5.500;2023-05-10T15:02:58;9.80;;;5.78;;
71042;SDS011;58696;52.134;5.500;2023-05-10T15:05:26;10.45;;;5.70;;
71042;SDS011;58696;52.134;5.500;2023-05-10T15:07:57;11.32;;;5.28;;
71042;SDS011;58696;52.134;5.500;2023-05-10T15:10:24;9.85;;;5.70;;
71042;SDS011;58696;52.134;5.500;2023-05-10T15:12:51;9.23;;;5.80;;
71042;SDS011;58696;52.134;5.500;2023-05-10T15:15:20;8.73;;;5.68;;
71042;SDS011;58696;52.134;5.500;2023-05-10T15:17:49;10.20;;;6.07;;
71042;SDS011;58696;52.134;5.500;2023-05-10T15:20:16;9.57;;;5.78;;
71042;SDS011;58696;52.134;5.500;2023-05-10T15:22:48;8.18;;;5.80;;
71042;SDS011;58696;52.134;5.500;2023-05-10T15:25:14;10.13;;;6.32;;
71042;SDS011;58696;52.134;5.500;2023-05-10T15:27:42;12.25;;;5.97;;
71042;SDS011;58696;52.134;5.500;2023-05-10T15:30:10;11.23;;;5.97;;
71042;SDS011;58696;52.134;5.500;2023-05-10T15:32:36;9.23;;;6.33;;
71042;SDS011;58696;52.134;5.500;2023-05-10T15:35:06;15.07;;;6.78;;
71042;SDS011;58696;52.134;5.500;2023-05-10T15:37:37;11.50;;;6.70;;
71042;SDS011;58696;52.134;5.500;2023-05-10T15:40:04;15.02;;;7.25;;